Time,TemperatureF,DewpointF,PressureIn,WindDirection,WindDirectionDegrees,WindSpeedMPH,WindSpeedGustMPH,Humidity,HourlyPrecipIn,Conditions,Clouds,dailyrainin,SoftwareType,DateUTC
2013-03-25 00:00:00,30.7,24.4,29.60,NE,39,10.0,13.0,77,0.00,,,0.00,WeatherCatV1.10B1784,2013-03-25 04:00:00,
2013-03-25 00:01:00,30.7,24.4,29.60,NE,50,8.0,13.0,77,0.00,,,0.00,WeatherCatV1.10B1784,2013-03-25 04:01:00,
2013-03-25 00:06:00,30.7,24.7,29.59,NE,50,9.0,9.0,78,0.00,,,0.00,WeatherCatV1.10B1784,2013-03-25 04:06:00,
2013-03-25 00:11:00,30.6,24.6,29.59,NE,51,8.0,11.0,78,0.00,,,0.00,WeatherCatV1.10B1784,2013-03-25 04:11:00,
2013-03-25 00:16:00,30.6,24.6,29.59,NE,44,6.0,11.0,78,0.00,,,0.00,WeatherCatV1.10B1784,2013-03-25 04:16:00,
2013-03-25 00:21:00,30.7,24.7,29.59,ENE,58,10.0,11.0,78,0.00,,,0.00,WeatherCatV1.10B1784,2013-03-25 04:21:00,
2013-03-25 00:26:00,30.7,24.7,29.59,North,11,9.0,13.0,78,0.00,,,0.00,WeatherCatV1.10B1784,2013-03-25 04:26:00,
2013-03-25 00:31:00,30.7,24.7,29.59,NE,43,8.0,9.0,78,0.00,,,0.00,WeatherCatV1.10B1784,2013-03-25 04:31:00,
2013-03-25 00:36:00,30.7,24.7,29.59,NNE,13,5.0,11.0,78,0.00,,,0.00,WeatherCatV1.10B1784,2013-03-25 04:36:00,
2013-03-25 00:41:00,30.7,24.7,29.59,NE,37,8.0,10.0,78,0.00,,,0.00,WeatherCatV1.10B1784,2013-03-25 04:41:00,
2013-03-25 00:46:00,30.7,24.7,29.59,NE,54,3.0,7.0,78,0.00,,,0.00,WeatherCatV1.10B1784,2013-03-25 04:46:00,
2013-03-25 00:51:00,30.7,24.7,29.59,NE,37,7.0,11.0,78,0.00,,,0.00,WeatherCatV1.10B1784,2013-03-25 04:51:00,
2013-03-25 00:56:00,30.7,24.4,29.59,North,355,7.0,9.0,77,0.00,,,0.00,WeatherCatV1.10B1784,2013-03-25 04:56:00,
2013-03-25 01:01:00,30.7,24.4,29.58,ENE,57,11.0,12.0,77,0.00,,,0.00,WeatherCatV1.10B1784,2013-03-25 05:01:00,
2013-03-25 01:06:00,30.8,24.5,29.59,NE,46,5.0,8.0,77,0.00,,,0.00,WeatherCatV1.10B1784,2013-03-25 05:06:00,
2013-03-25 01:11:00,30.8,24.5,29.59,NNE,14,7.0,13.0,77,0.00,,,0.00,WeatherCatV1.10B1784,2013-03-25 05:11:00,
2013-03-25 01:16:00,30.8,24.5,29.58,NNE,26,7.0,9.0,77,0.00,,,0.00,WeatherCatV1.10B1784,2013-03-25 05:16:00,
2013-03-25 01:21:00,30.8,24.5,29.58,NE,43,3.0,9.0,77,0.00,,,0.00,WeatherCatV1.10B1784,2013-03-25 05:21:00,
2013-03-25 01:26:00,30.8,24.5,29.58,East,82,13.0,14.0,77,0.00,,,0.00,WeatherCatV1.10B1784,2013-03-25 05:26:00,
2013-03-25 01:31:00,30.9,24.6,29.58,NE,39,6.0,10.0,77,0.00,,,0.00,WeatherCatV1.10B1784,2013-03-25 05:31:00,
2013-03-25 01:36:00,30.9,24.6,29.58,NNE,18,5.0,11.0,77,0.00,,,0.00,WeatherCatV1.10B1784,2013-03-25 05:36:00,
2013-03-25 01:41:00,31.0,24.3,29.57,NE,34,6.0,13.0,76,0.00,,,0.00,WeatherCatV1.10B1784,2013-03-25 05:41:00,
2013-03-25 01:46:00,31.0,24.3,29.57,NE,39,7.0,12.0,76,0.00,,,0.00,WeatherCatV1.10B1784,2013-03-25 05:46:00,
2013-03-25 01:51:00,31.1,24.4,29.57,NE,39,10.0,13.0,76,0.00,,,0.00,WeatherCatV1.10B1784,2013-03-25 05:51:00,
2013-03-25 01:56:00,31.1,24.4,29.57,NNE,25,8.0,11.0,76,0.00,,,0.00,WeatherCatV1.10B1784,2013-03-25 05:56:00,
2013-03-25 02:01:00,31.1,24.4,29.57,ENE,65,10.0,11.0,76,0.00,,,0.00,WeatherCatV1.10B1784,2013-03-25 06:01:00,
2013-03-25 02:06:00,31.2,24.2,29.57,North,11,6.0,17.0,75,0.00,,,0.00,WeatherCatV1.10B1784,2013-03-25 06:06:00,
2013-03-25 02:11:00,31.2,24.2,29.57,NE,47,5.0,11.0,75,0.00,,,0.00,WeatherCatV1.10B1784,2013-03-25 06:11:00,
2013-03-25 02:16:00,31.2,24.5,29.57,NE,36,6.0,10.0,76,0.00,,,0.00,WeatherCatV1.10B1784,2013-03-25 06:16:00,
2013-03-25 02:21:00,31.1,24.7,29.57,NNE,32,6.0,16.0,77,0.00,,,0.00,WeatherCatV1.10B1784,2013-03-25 06:21:00,
2013-03-25 02:26:00,30.9,25.2,29.56,ENE,57,10.0,13.0,79,0.00,,,0.00,WeatherCatV1.10B1784,2013-03-25 06:26:00,
2013-03-25 02:31:00,30.5,25.4,29.56,ENE,61,7.0,10.0,81,0.00,,,0.00,WeatherCatV1.10B1784,2013-03-25 06:31:00,
2013-03-25 02:36:00,30.1,25.9,29.56,ENE,65,9.0,10.0,84,0.00,,,0.00,WeatherCatV1.10B1784,2013-03-25 06:36:00,
2013-03-25 02:41:00,29.8,25.9,29.56,NE,52,2.0,7.0,85,0.00,,,0.00,WeatherCatV1.10B1784,2013-03-25 06:41:00,
2013-03-25 02:46:00,29.6,25.9,29.56,NE,44,6.0,9.0,86,0.00,,,0.00,WeatherCatV1.10B1784,2013-03-25 06:46:00,
2013-03-25 02:51:00,29.5,26.1,29.56,NE,53,9.0,14.0,87,0.00,,,0.00,WeatherCatV1.10B1784,2013-03-25 06:51:00,
2013-03-25 02:56:00,29.5,26.1,29.56,NE,42,9.0,12.0,87,0.00,,,0.00,WeatherCatV1.10B1784,2013-03-25 06:56:00,
2013-03-25 03:01:00,29.6,25.9,29.55,NE,38,8.0,13.0,86,0.00,,,0.00,WeatherCatV1.10B1784,2013-03-25 07:01:00,
2013-03-25 03:06:00,29.7,26.0,29.55,NE,45,7.0,10.0,86,0.00,,,0.00,WeatherCatV1.10B1784,2013-03-25 07:06:00,
2013-03-25 03:11:00,29.9,25.7,29.55,NE,52,7.0,12.0,84,0.00,,,0.00,WeatherCatV1.10B1784,2013-03-25 07:11:00,
2013-03-25 03:16:00,30.0,26.0,29.55,NE,37,3.0,9.0,85,0.00,,,0.00,WeatherCatV1.10B1784,2013-03-25 07:16:00,
2013-03-25 03:21:00,29.9,26.0,29.55,NE,55,7.0,13.0,85,0.00,,,0.00,WeatherCatV1.10B1784,2013-03-25 07:21:00,
2013-03-25 03:26:00,29.8,26.1,29.55,NNE,27,4.0,11.0,86,0.00,,,0.00,WeatherCatV1.10B1784,2013-03-25 07:26:00,
2013-03-25 03:31:00,29.7,26.3,29.55,NNE,26,7.0,10.0,87,0.00,,,0.00,WeatherCatV1.10B1784,2013-03-25 07:31:00,
2013-03-25 03:36:00,29.5,26.1,29.54,ENE,69,11.0,13.0,87,0.00,,,0.00,WeatherCatV1.10B1784,2013-03-25 07:36:00,
2013-03-25 03:41:00,29.4,26.3,29.54,NE,39,6.0,8.0,88,0.00,,,0.00,WeatherCatV1.10B1784,2013-03-25 07:41:00,
2013-03-25 03:46:00,29.4,26.0,29.54,North,5,7.0,12.0,87,0.00,,,0.00,WeatherCatV1.10B1784,2013-03-25 07:46:00,
2013-03-25 03:51:00,29.6,25.9,29.53,NE,36,9.0,17.0,86,0.00,,,0.00,WeatherCatV1.10B1784,2013-03-25 07:51:00,
2013-03-25 03:56:00,29.7,26.0,29.53,NNE,12,9.0,15.0,86,0.00,,,0.00,WeatherCatV1.10B1784,2013-03-25 07:56:00,
2013-03-25 04:01:00,29.7,25.8,29.53,ENE,68,7.0,14.0,85,0.00,,,0.00,WeatherCatV1.10B1784,2013-03-25 08:01:00,
2013-03-25 04:06:00,29.7,25.8,29.53,NE,43,8.0,11.0,85,0.00,,,0.00,WeatherCatV1.10B1784,2013-03-25 08:06:00,
2013-03-25 04:11:00,29.7,26.0,29.53,NE,38,7.0,10.0,86,0.00,,,0.00,WeatherCatV1.10B1784,2013-03-25 08:11:00,
2013-03-25 04:16:00,29.6,25.9,29.53,NNE,32,5.0,13.0,86,0.00,,,0.00,WeatherCatV1.10B1784,2013-03-25 08:16:00,
2013-03-25 04:21:00,29.4,25.7,29.53,NNE,27,9.0,12.0,86,0.00,,,0.00,WeatherCatV1.10B1784,2013-03-25 08:21:00,
2013-03-25 04:26:00,29.4,25.7,29.53,ENE,61,10.0,12.0,86,0.00,,,0.00,WeatherCatV1.10B1784,2013-03-25 08:26:00,
2013-03-25 04:31:00,29.4,25.7,29.53,NE,51,8.0,8.0,86,0.00,,,0.00,WeatherCatV1.10B1784,2013-03-25 08:31:00,
2013-03-25 04:36:00,29.3,25.4,29.53,NE,34,4.0,8.0,85,0.00,,,0.00,WeatherCatV1.10B1784,2013-03-25 08:36:00,
2013-03-25 04:41:00,29.3,25.4,29.53,NNE,16,6.0,8.0,85,0.00,,,0.00,WeatherCatV1.10B1784,2013-03-25 08:41:00,
2013-03-25 04:46:00,29.5,25.3,29.53,NE,45,5.0,10.0,84,0.00,,,0.00,WeatherCatV1.10B1784,2013-03-25 08:46:00,
2013-03-25 04:51:00,29.7,25.2,29.53,NE,45,7.0,7.0,83,0.00,,,0.00,WeatherCatV1.10B1784,2013-03-25 08:51:00,
2013-03-25 04:56:00,29.9,25.1,29.52,NE,52,6.0,12.0,82,0.00,,,0.00,WeatherCatV1.10B1784,2013-03-25 08:56:00,
2013-03-25 05:01:00,30.1,25.0,29.52,NNE,32,5.0,8.0,81,0.00,,,0.00,WeatherCatV1.10B1784,2013-03-25 09:01:00,
2013-03-25 05:06:00,30.3,25.2,29.52,NE,51,11.0,14.0,81,0.00,,,0.00,WeatherCatV1.10B1784,2013-03-25 09:06:00,
2013-03-25 05:11:00,30.4,25.0,29.52,NE,51,7.0,12.0,80,0.00,,,0.00,WeatherCatV1.10B1784,2013-03-25 09:11:00,
2013-03-25 05:16:00,30.5,25.1,29.52,NNE,32,10.0,13.0,80,0.00,,,0.00,WeatherCatV1.10B1784,2013-03-25 09:16:00,
2013-03-25 05:21:00,30.6,25.2,29.52,NE,34,6.0,11.0,80,0.00,,,0.00,WeatherCatV1.10B1784,2013-03-25 09:21:00,
2013-03-25 05:26:00,30.7,25.3,29.52,NE,36,7.0,9.0,80,0.00,,,0.00,WeatherCatV1.10B1784,2013-03-25 09:26:00,
2013-03-25 05:31:00,30.7,25.0,29.52,NE,40,6.0,12.0,79,0.00,,,0.00,WeatherCatV1.10B1784,2013-03-25 09:31:00,
2013-03-25 05:36:00,30.6,25.2,29.52,NE,49,6.0,12.0,80,0.00,,,0.00,WeatherCatV1.10B1784,2013-03-25 09:36:00,
2013-03-25 05:41:00,30.6,25.2,29.52,NE,39,5.0,9.0,80,0.00,,,0.00,WeatherCatV1.10B1784,2013-03-25 09:41:00,
2013-03-25 05:46:00,30.6,25.2,29.52,ENE,69,7.0,12.0,80,0.00,,,0.00,WeatherCatV1.10B1784,2013-03-25 09:46:00,
2013-03-25 05:51:00,30.6,25.2,29.53,NE,38,5.0,9.0,80,0.00,,,0.00,WeatherCatV1.10B1784,2013-03-25 09:51:00,
2013-03-25 05:56:00,30.7,25.3,29.53,NE,40,8.0,12.0,80,0.00,,,0.00,WeatherCatV1.10B1784,2013-03-25 09:56:00,
2013-03-25 06:01:00,30.7,25.3,29.52,NE,43,9.0,12.0,80,0.00,,,0.00,WeatherCatV1.10B1784,2013-03-25 10:01:00,
2013-03-25 06:06:00,30.7,25.3,29.52,East,88,9.0,9.0,80,0.00,,,0.00,WeatherCatV1.10B1784,2013-03-25 10:06:00,
2013-03-25 06:11:00,30.6,25.2,29.52,NE,51,7.0,10.0,80,0.00,,,0.00,WeatherCatV1.10B1784,2013-03-25 10:11:00,
2013-03-25 06:16:00,30.6,25.2,29.52,NNE,22,5.0,12.0,80,0.00,,,0.00,WeatherCatV1.10B1784,2013-03-25 10:16:00,
2013-03-25 06:21:00,30.5,25.4,29.52,NE,40,6.0,10.0,81,0.00,,,0.00,WeatherCatV1.10B1784,2013-03-25 10:21:00,
2013-03-25 06:26:00,30.5,25.4,29.52,NE,50,6.0,11.0,81,0.00,,,0.00,WeatherCatV1.10B1784,2013-03-25 10:26:00,
2013-03-25 06:31:00,30.5,25.4,29.53,NE,45,7.0,12.0,81,0.00,,,0.00,WeatherCatV1.10B1784,2013-03-25 10:31:00,
2013-03-25 06:36:00,30.5,25.4,29.53,ENE,57,8.0,14.0,81,0.00,,,0.00,WeatherCatV1.10B1784,2013-03-25 10:36:00,
2013-03-25 06:41:00,30.5,25.7,29.53,NNW,348,8.0,11.0,82,0.00,,,0.00,WeatherCatV1.10B1784,2013-03-25 10:41:00,
2013-03-25 06:46:00,30.3,25.8,29.53,ENE,73,5.0,12.0,83,0.00,,,0.00,WeatherCatV1.10B1784,2013-03-25 10:46:00,
2013-03-25 06:51:00,30.2,25.7,29.53,NNE,23,8.0,12.0,83,0.00,,,0.00,WeatherCatV1.10B1784,2013-03-25 10:51:00,
2013-03-25 06:56:00,30.1,25.9,29.53,NE,45,8.0,10.0,84,0.00,,,0.00,WeatherCatV1.10B1784,2013-03-25 10:56:00,
2013-03-25 07:01:00,30.0,26.0,29.53,NE,44,8.0,12.0,85,0.00,,,0.00,WeatherCatV1.10B1784,2013-03-25 11:01:00,
2013-03-25 07:06:00,29.9,26.0,29.53,ENE,63,10.0,11.0,85,0.00,,,0.00,WeatherCatV1.10B1784,2013-03-25 11:06:00,
2013-03-25 07:11:00,29.8,25.9,29.53,NNE,26,4.0,10.0,85,0.00,,,0.00,WeatherCatV1.10B1784,2013-03-25 11:11:00,
2013-03-25 07:16:00,29.7,26.0,29.53,ENE,59,11.0,11.0,86,0.00,,,0.00,WeatherCatV1.10B1784,2013-03-25 11:16:00,
2013-03-25 07:21:00,29.8,25.9,29.53,NE,55,5.0,11.0,85,0.00,,,0.00,WeatherCatV1.10B1784,2013-03-25 11:21:00,
2013-03-25 07:26:00,29.8,25.9,29.54,NE,49,7.0,13.0,85,0.00,,,0.00,WeatherCatV1.10B1784,2013-03-25 11:26:00,
2013-03-25 07:31:00,30.0,26.0,29.54,NE,38,10.0,13.0,85,0.00,,,0.00,WeatherCatV1.10B1784,2013-03-25 11:31:00,
2013-03-25 07:36:00,30.1,26.1,29.54,NE,55,9.0,9.0,85,0.00,,,0.00,WeatherCatV1.10B1784,2013-03-25 11:36:00,
2013-03-25 07:41:00,30.1,26.1,29.54,NE,45,8.0,12.0,85,0.00,,,0.00,WeatherCatV1.10B1784,2013-03-25 11:41:00,
2013-03-25 07:46:00,30.1,26.1,29.54,NE,35,5.0,10.0,85,0.00,,,0.00,WeatherCatV1.10B1784,2013-03-25 11:46:00,
2013-03-25 07:51:00,30.2,26.2,29.54,NE,35,7.0,11.0,85,0.00,,,0.00,WeatherCatV1.10B1784,2013-03-25 11:51:00,
2013-03-25 07:56:00,30.2,26.0,29.54,NE,51,8.0,13.0,84,0.00,,,0.00,WeatherCatV1.10B1784,2013-03-25 11:56:00,
2013-03-25 08:01:00,30.3,26.1,29.54,NE,42,7.0,8.0,84,0.00,,,0.00,WeatherCatV1.10B1784,2013-03-25 12:01:00,
2013-03-25 08:06:00,30.5,26.0,29.54,NE,48,5.0,12.0,83,0.00,,,0.00,WeatherCatV1.10B1784,2013-03-25 12:06:00,
2013-03-25 08:12:00,30.6,26.1,29.54,NE,51,6.0,13.0,83,0.00,,,0.00,WeatherCatV1.10B1784,2013-03-25 12:12:00,
2013-03-25 08:17:00,30.7,25.9,29.55,NNE,20,4.0,12.0,82,0.00,,,0.00,WeatherCatV1.10B1784,2013-03-25 12:17:00,
2013-03-25 08:22:00,30.8,26.0,29.55,NE,40,8.0,16.0,82,0.00,,,0.00,WeatherCatV1.10B1784,2013-03-25 12:22:00,
2013-03-25 08:27:00,30.9,26.1,29.55,NE,46,11.0,11.0,82,0.00,,,0.00,WeatherCatV1.10B1784,2013-03-25 12:27:00,
2013-03-25 08:32:00,30.9,26.1,29.55,NNE,13,13.0,13.0,82,0.00,,,0.00,WeatherCatV1.10B1784,2013-03-25 12:32:00,
2013-03-25 08:37:00,31.0,26.2,29.55,NE,36,17.0,17.0,82,0.00,,,0.00,WeatherCatV1.10B1784,2013-03-25 12:37:00,
2013-03-25 08:42:00,31.2,26.4,29.55,North,11,8.0,11.0,82,0.00,,,0.00,WeatherCatV1.10B1784,2013-03-25 12:42:00,
2013-03-25 08:47:00,31.2,26.1,29.56,NNE,32,10.0,14.0,81,0.00,,,0.00,WeatherCatV1.10B1784,2013-03-25 12:47:00,
2013-03-25 08:52:00,31.3,26.2,29.56,NE,42,6.0,10.0,81,0.00,,,0.00,WeatherCatV1.10B1784,2013-03-25 12:52:00,
2013-03-25 08:57:00,31.3,26.2,29.56,NE,45,9.0,11.0,81,0.00,,,0.00,WeatherCatV1.10B1784,2013-03-25 12:57:00,
2013-03-25 09:02:00,31.4,26.3,29.56,NE,36,13.0,16.0,81,0.00,,,0.00,WeatherCatV1.10B1784,2013-03-25 13:02:00,
2013-03-25 09:07:00,31.4,26.3,29.56,NE,49,10.0,14.0,81,0.00,,,0.00,WeatherCatV1.10B1784,2013-03-25 13:07:00,
2013-03-25 09:12:00,31.4,26.3,29.57,NNE,28,8.0,12.0,81,0.00,,,0.00,WeatherCatV1.10B1784,2013-03-25 13:12:00,
2013-03-25 09:17:00,31.5,26.4,29.57,NE,38,10.0,10.0,81,0.00,,,0.00,WeatherCatV1.10B1784,2013-03-25 13:17:00,
2013-03-25 09:22:00,31.5,26.4,29.57,NNE,21,8.0,13.0,81,0.00,,,0.00,WeatherCatV1.10B1784,2013-03-25 13:22:00,
2013-03-25 09:27:00,31.5,26.4,29.57,North,9,7.0,10.0,81,0.00,,,0.00,WeatherCatV1.10B1784,2013-03-25 13:27:00,
2013-03-25 09:32:00,31.5,26.4,29.57,NE,52,5.0,14.0,81,0.00,,,0.00,WeatherCatV1.10B1784,2013-03-25 13:32:00,
2013-03-25 09:37:00,31.5,26.4,29.57,NNE,13,7.0,15.0,81,0.00,,,0.00,WeatherCatV1.10B1784,2013-03-25 13:37:00,
2013-03-25 09:42:00,31.6,26.5,29.57,NNE,22,11.0,12.0,81,0.00,,,0.00,WeatherCatV1.10B1784,2013-03-25 13:42:00,
2013-03-25 09:47:00,31.6,26.2,29.57,NNE,26,14.0,16.0,80,0.00,,,0.00,WeatherCatV1.10B1784,2013-03-25 13:47:00,
2013-03-25 09:52:00,31.6,26.2,29.57,NNE,12,9.0,15.0,80,0.00,,,0.00,WeatherCatV1.10B1784,2013-03-25 13:52:00,
2013-03-25 09:57:00,31.6,26.2,29.57,NNE,31,17.0,17.0,80,0.00,,,0.00,WeatherCatV1.10B1784,2013-03-25 13:57:00,
2013-03-25 10:02:00,31.7,26.5,29.58,NE,40,11.0,11.0,81,0.00,,,0.00,WeatherCatV1.10B1784,2013-03-25 14:02:00,
2013-03-25 10:07:00,31.7,26.2,29.58,NNE,12,13.0,13.0,80,0.00,,,0.00,WeatherCatV1.10B1784,2013-03-25 14:07:00,
2013-03-25 10:12:00,31.8,26.3,29.58,NE,44,6.0,13.0,80,0.00,,,0.00,WeatherCatV1.10B1784,2013-03-25 14:12:00,
2013-03-25 10:17:00,31.9,26.1,29.58,NNE,13,10.0,19.0,79,0.00,,,0.00,WeatherCatV1.10B1784,2013-03-25 14:17:00,
2013-03-25 10:22:00,31.9,26.1,29.58,ENE,75,9.0,15.0,79,0.00,,,0.00,WeatherCatV1.10B1784,2013-03-25 14:22:00,
2013-03-25 10:27:00,31.9,26.1,29.59,NE,43,8.0,15.0,79,0.00,,,0.00,WeatherCatV1.10B1784,2013-03-25 14:27:00,
2013-03-25 10:32:00,32.0,26.2,29.59,NNE,23,7.0,13.0,79,0.00,,,0.00,WeatherCatV1.10B1784,2013-03-25 14:32:00,
2013-03-25 10:37:00,32.1,26.3,29.59,NNE,19,9.0,13.0,79,0.00,,,0.00,WeatherCatV1.10B1784,2013-03-25 14:37:00,
2013-03-25 10:42:00,32.2,26.4,29.59,NNE,20,12.0,12.0,79,0.00,,,0.00,WeatherCatV1.10B1784,2013-03-25 14:42:00,
2013-03-25 10:47:00,32.3,26.2,29.59,NE,41,7.0,11.0,78,0.00,,,0.00,WeatherCatV1.10B1784,2013-03-25 14:47:00,
2013-03-25 10:52:00,32.3,26.2,29.59,NE,54,10.0,17.0,78,0.00,,,0.00,WeatherCatV1.10B1784,2013-03-25 14:52:00,
2013-03-25 10:57:00,32.4,26.3,29.60,NE,46,9.0,18.0,78,0.00,,,0.00,WeatherCatV1.10B1784,2013-03-25 14:57:00,
2013-03-25 11:02:00,32.4,26.3,29.59,NNE,14,10.0,16.0,78,0.00,,,0.00,WeatherCatV1.10B1784,2013-03-25 15:02:00,
2013-03-25 11:07:00,32.5,26.1,29.59,NE,44,7.0,15.0,77,0.00,,,0.00,WeatherCatV1.10B1784,2013-03-25 15:07:00,
2013-03-25 11:12:00,32.6,26.2,29.60,NNE,30,9.0,14.0,77,0.00,,,0.00,WeatherCatV1.10B1784,2013-03-25 15:12:00,
2013-03-25 11:17:00,32.7,26.0,29.60,NE,50,9.0,14.0,76,0.00,,,0.00,WeatherCatV1.10B1784,2013-03-25 15:17:00,
2013-03-25 11:22:00,32.8,26.1,29.60,NE,40,11.0,17.0,76,0.00,,,0.00,WeatherCatV1.10B1784,2013-03-25 15:22:00,
2013-03-25 11:27:00,33.0,26.3,29.60,NNE,33,6.0,16.0,76,0.00,,,0.00,WeatherCatV1.10B1784,2013-03-25 15:27:00,
2013-03-25 11:32:00,33.2,26.5,29.60,East,82,10.0,12.0,76,0.00,,,0.00,WeatherCatV1.10B1784,2013-03-25 15:32:00,
2013-03-25 11:37:00,33.3,26.2,29.60,NE,34,8.0,20.0,75,0.00,,,0.00,WeatherCatV1.10B1784,2013-03-25 15:37:00,
2013-03-25 11:42:00,33.4,27.0,29.60,ENE,67,10.0,16.0,77,0.00,,,0.00,WeatherCatV1.10B1784,2013-03-25 15:42:00,
2013-03-25 11:47:00,33.5,26.4,29.60,North,10,13.0,15.0,75,0.00,,,0.00,WeatherCatV1.10B1784,2013-03-25 15:47:00,
2013-03-25 11:52:00,33.6,26.5,29.61,NNE,27,10.0,14.0,75,0.00,,,0.00,WeatherCatV1.10B1784,2013-03-25 15:52:00,
2013-03-25 11:57:00,33.8,26.7,29.61,NE,35,14.0,14.0,75,0.00,,,0.00,WeatherCatV1.10B1784,2013-03-25 15:57:00,
2013-03-25 12:02:00,33.8,26.4,29.61,NE,35,9.0,17.0,74,0.00,,,0.00,WeatherCatV1.10B1784,2013-03-25 16:02:00,
2013-03-25 12:07:00,33.8,26.4,29.61,NNE,33,9.0,19.0,74,0.00,,,0.00,WeatherCatV1.10B1784,2013-03-25 16:07:00,
2013-03-25 12:12:00,34.0,26.6,29.61,North,5,12.0,19.0,74,0.00,,,0.00,WeatherCatV1.10B1784,2013-03-25 16:12:00,
2013-03-25 12:17:00,34.2,26.8,29.61,NE,55,6.0,15.0,74,0.00,,,0.00,WeatherCatV1.10B1784,2013-03-25 16:17:00,
2013-03-25 12:22:00,34.3,26.9,29.61,NNE,32,10.0,13.0,74,0.00,,,0.00,WeatherCatV1.10B1784,2013-03-25 16:22:00,
2013-03-25 12:27:00,34.5,26.8,29.62,NE,45,11.0,18.0,73,0.00,,,0.00,WeatherCatV1.10B1784,2013-03-25 16:27:00,
2013-03-25 12:32:00,34.5,26.8,29.62,NE,39,10.0,21.0,73,0.00,,,0.00,WeatherCatV1.10B1784,2013-03-25 16:32:00,
2013-03-25 12:37:00,34.5,26.8,29.62,NNE,25,11.0,15.0,73,0.00,,,0.00,WeatherCatV1.10B1784,2013-03-25 16:37:00,
2013-03-25 12:42:00,34.5,26.8,29.62,NNE,21,9.0,16.0,73,0.00,,,0.00,WeatherCatV1.10B1784,2013-03-25 16:42:00,
2013-03-25 12:47:00,34.7,26.9,29.62,NE,44,12.0,17.0,73,0.00,,,0.00,WeatherCatV1.10B1784,2013-03-25 16:47:00,
2013-03-25 12:52:00,34.9,27.1,29.62,NNE,15,12.0,15.0,73,0.00,,,0.00,WeatherCatV1.10B1784,2013-03-25 16:52:00,
2013-03-25 12:57:00,34.9,26.8,29.62,NNE,31,7.0,15.0,72,0.00,,,0.00,WeatherCatV1.10B1784,2013-03-25 16:57:00,
2013-03-25 13:02:00,35.1,27.3,29.63,NNE,31,10.0,16.0,73,0.00,,,0.00,WeatherCatV1.10B1784,2013-03-25 17:02:00,
2013-03-25 13:07:00,35.0,27.2,29.63,NE,35,8.0,19.0,73,0.00,,,0.00,WeatherCatV1.10B1784,2013-03-25 17:07:00,
2013-03-25 13:12:00,35.1,27.3,29.63,NE,34,11.0,16.0,73,0.00,,,0.00,WeatherCatV1.10B1784,2013-03-25 17:12:00,
2013-03-25 13:17:00,35.1,27.0,29.63,NNE,28,13.0,16.0,72,0.00,,,0.00,WeatherCatV1.10B1784,2013-03-25 17:17:00,
2013-03-25 13:22:00,35.4,27.3,29.63,NNE,32,8.0,15.0,72,0.00,,,0.00,WeatherCatV1.10B1784,2013-03-25 17:22:00,
2013-03-25 13:27:00,35.7,27.6,29.63,North,0,7.0,12.0,72,0.00,,,0.00,WeatherCatV1.10B1784,2013-03-25 17:27:00,
2013-03-25 13:32:00,35.9,27.8,29.63,NE,44,13.0,15.0,72,0.00,,,0.00,WeatherCatV1.10B1784,2013-03-25 17:32:00,
2013-03-25 13:37:00,35.8,27.7,29.63,NNE,27,11.0,13.0,72,0.00,,,0.00,WeatherCatV1.10B1784,2013-03-25 17:37:00,
2013-03-25 13:42:00,35.6,27.8,29.63,NNE,16,11.0,19.0,73,0.00,,,0.00,WeatherCatV1.10B1784,2013-03-25 17:42:00,
2013-03-25 13:47:00,35.6,27.5,29.63,NE,38,12.0,16.0,72,0.00,,,0.00,WeatherCatV1.10B1784,2013-03-25 17:47:00,
2013-03-25 13:52:00,36.2,28.1,29.63,NE,36,13.0,13.0,72,0.00,,,0.00,WeatherCatV1.10B1784,2013-03-25 17:52:00,
2013-03-25 13:57:00,36.6,28.1,29.64,NE,42,12.0,15.0,71,0.00,,,0.00,WeatherCatV1.10B1784,2013-03-25 17:57:00,
2013-03-25 14:02:00,36.5,28.0,29.64,North,5,12.0,19.0,71,0.00,,,0.00,WeatherCatV1.10B1784,2013-03-25 18:02:00,
2013-03-25 14:07:00,36.7,27.5,29.63,NE,50,9.0,15.0,69,0.00,,,0.00,WeatherCatV1.10B1784,2013-03-25 18:07:00,
2013-03-25 14:12:00,37.0,27.4,29.64,NNE,30,9.0,12.0,68,0.00,,,0.00,WeatherCatV1.10B1784,2013-03-25 18:12:00,
2013-03-25 14:17:00,37.5,27.6,29.63,NNW,344,9.0,16.0,67,0.00,,,0.00,WeatherCatV1.10B1784,2013-03-25 18:17:00,
2013-03-25 14:22:00,37.6,28.0,29.64,NNE,20,6.0,9.0,68,0.00,,,0.00,WeatherCatV1.10B1784,2013-03-25 18:22:00,
2013-03-25 14:27:00,37.9,27.9,29.64,NNE,19,7.0,12.0,67,0.00,,,0.00,WeatherCatV1.10B1784,2013-03-25 18:27:00,
2013-03-25 14:32:00,37.8,27.5,29.64,NNE,22,14.0,17.0,66,0.00,,,0.00,WeatherCatV1.10B1784,2013-03-25 18:32:00,
2013-03-25 14:37:00,37.8,27.8,29.64,NNE,26,8.0,12.0,67,0.00,,,0.00,WeatherCatV1.10B1784,2013-03-25 18:37:00,
2013-03-25 14:42:00,37.9,28.3,29.64,North,5,8.0,13.0,68,0.00,,,0.00,WeatherCatV1.10B1784,2013-03-25 18:42:00,
2013-03-25 14:47:00,37.7,27.7,29.64,NNE,20,14.0,14.0,67,0.00,,,0.00,WeatherCatV1.10B1784,2013-03-25 18:47:00,
2013-03-25 14:52:00,37.6,27.6,29.64,NNE,13,11.0,15.0,67,0.00,,,0.00,WeatherCatV1.10B1784,2013-03-25 18:52:00,
2013-03-25 14:57:00,37.8,27.8,29.65,North,5,7.0,12.0,67,0.00,,,0.00,WeatherCatV1.10B1784,2013-03-25 18:57:00,
2013-03-25 15:02:00,37.5,27.9,29.65,North,9,8.0,17.0,68,0.00,,,0.00,WeatherCatV1.10B1784,2013-03-25 19:02:00,
2013-03-25 15:07:00,37.5,27.6,29.65,NNE,20,7.0,13.0,67,0.00,,,0.00,WeatherCatV1.10B1784,2013-03-25 19:07:00,
2013-03-25 15:12:00,37.5,27.6,29.65,NNE,21,7.0,12.0,67,0.00,,,0.00,WeatherCatV1.10B1784,2013-03-25 19:12:00,
2013-03-25 15:17:00,37.7,27.7,29.65,NNE,29,10.0,13.0,67,0.00,,,0.00,WeatherCatV1.10B1784,2013-03-25 19:17:00,
2013-03-25 15:22:00,37.6,28.0,29.66,North,0,11.0,13.0,68,0.00,,,0.00,WeatherCatV1.10B1784,2013-03-25 19:22:00,
2013-03-25 15:27:00,37.3,27.4,29.66,NNE,12,6.0,12.0,67,0.00,,,0.00,WeatherCatV1.10B1784,2013-03-25 19:27:00,
2013-03-25 15:32:00,37.6,28.0,29.66,NNE,23,11.0,18.0,68,0.00,,,0.00,WeatherCatV1.10B1784,2013-03-25 19:32:00,
2013-03-25 15:37:00,37.9,27.6,29.66,NNE,18,5.0,10.0,66,0.00,,,0.00,WeatherCatV1.10B1784,2013-03-25 19:37:00,
2013-03-25 15:42:00,38.6,28.2,29.66,NNE,30,18.0,18.0,66,0.00,,,0.00,WeatherCatV1.10B1784,2013-03-25 19:42:00,
2013-03-25 15:47:00,38.4,27.3,29.66,North,9,8.0,11.0,64,0.00,,,0.00,WeatherCatV1.10B1784,2013-03-25 19:47:00,
2013-03-25 15:52:00,38.3,27.6,29.66,North,5,7.0,11.0,65,0.00,,,0.00,WeatherCatV1.10B1784,2013-03-25 19:52:00,
2013-03-25 15:57:00,38.1,27.8,29.67,North,355,6.0,8.0,66,0.00,,,0.00,WeatherCatV1.10B1784,2013-03-25 19:57:00,
2013-03-25 16:02:00,38.1,27.8,29.67,North,11,6.0,10.0,66,0.00,,,0.00,WeatherCatV1.10B1784,2013-03-25 20:02:00,
2013-03-25 16:07:00,38.1,27.4,29.67,North,10,11.0,14.0,65,0.00,,,0.00,WeatherCatV1.10B1784,2013-03-25 20:07:00,
2013-03-25 16:12:00,38.0,27.3,29.67,NNW,347,5.0,11.0,65,0.00,,,0.00,WeatherCatV1.10B1784,2013-03-25 20:12:00,
2013-03-25 16:17:00,37.9,27.2,29.67,North,9,7.0,12.0,65,0.00,,,0.00,WeatherCatV1.10B1784,2013-03-25 20:17:00,
2013-03-25 16:22:00,37.8,27.1,29.67,NNE,29,13.0,17.0,65,0.00,,,0.00,WeatherCatV1.10B1784,2013-03-25 20:22:00,
2013-03-25 16:27:00,37.9,27.6,29.68,NE,51,7.0,13.0,66,0.00,,,0.00,WeatherCatV1.10B1784,2013-03-25 20:27:00,
2013-03-25 16:32:00,38.1,27.4,29.68,NNW,340,7.0,13.0,65,0.00,,,0.00,WeatherCatV1.10B1784,2013-03-25 20:32:00,
2013-03-25 16:37:00,38.2,27.5,29.68,North,0,6.0,10.0,65,0.00,,,0.00,WeatherCatV1.10B1784,2013-03-25 20:37:00,
2013-03-25 16:42:00,38.4,27.3,29.68,North,355,5.0,13.0,64,0.00,,,0.00,WeatherCatV1.10B1784,2013-03-25 20:42:00,
2013-03-25 16:47:00,38.4,29.1,29.69,NNW,342,7.0,11.0,69,0.00,,,0.00,WeatherCatV1.10B1784,2013-03-25 20:47:00,
2013-03-25 16:52:00,38.0,29.4,29.69,NNE,13,7.0,13.0,71,0.00,,,0.00,WeatherCatV1.10B1784,2013-03-25 20:52:00,
2013-03-25 16:57:00,37.9,29.7,29.69,North,0,8.0,12.0,72,0.00,,,0.00,WeatherCatV1.10B1784,2013-03-25 20:57:00,
2013-03-25 17:02:00,37.9,30.0,29.70,NW,326,5.0,10.0,73,0.00,,,0.00,WeatherCatV1.10B1784,2013-03-25 21:02:00,
2013-03-25 17:07:00,38.0,30.1,29.70,North,11,6.0,12.0,73,0.00,,,0.00,WeatherCatV1.10B1784,2013-03-25 21:07:00,
2013-03-25 17:12:00,38.0,30.1,29.70,NNE,17,4.0,10.0,73,0.00,,,0.00,WeatherCatV1.10B1784,2013-03-25 21:12:00,
2013-03-25 17:17:00,37.8,29.6,29.70,North,5,6.0,13.0,72,0.00,,,0.00,WeatherCatV1.10B1784,2013-03-25 21:17:00,
2013-03-25 17:22:00,37.8,29.6,29.70,NNE,22,6.0,10.0,72,0.00,,,0.00,WeatherCatV1.10B1784,2013-03-25 21:22:00,
2013-03-25 17:27:00,38.0,29.1,29.70,North,355,7.0,13.0,70,0.00,,,0.00,WeatherCatV1.10B1784,2013-03-25 21:27:00,
2013-03-25 17:32:00,38.0,29.4,29.70,North,355,4.0,12.0,71,0.00,,,0.00,WeatherCatV1.10B1784,2013-03-25 21:32:00,
2013-03-25 17:37:00,38.0,29.8,29.71,NW,319,9.0,13.0,72,0.00,,,0.00,WeatherCatV1.10B1784,2013-03-25 21:37:00,
2013-03-25 17:42:00,37.7,29.5,29.71,NNW,340,12.0,13.0,72,0.00,,,0.00,WeatherCatV1.10B1784,2013-03-25 21:42:00,
2013-03-25 17:47:00,37.7,29.5,29.72,North,5,5.0,15.0,72,0.00,,,0.00,WeatherCatV1.10B1784,2013-03-25 21:47:00,
2013-03-25 17:52:00,37.9,29.4,29.72,NNE,24,11.0,15.0,71,0.00,,,0.00,WeatherCatV1.10B1784,2013-03-25 21:52:00,
2013-03-25 17:57:00,38.1,29.5,29.72,NNW,342,7.0,12.0,71,0.00,,,0.00,WeatherCatV1.10B1784,2013-03-25 21:57:00,
2013-03-25 18:02:00,37.8,29.3,29.73,NNE,31,5.0,11.0,71,0.00,,,0.00,WeatherCatV1.10B1784,2013-03-25 22:02:00,
2013-03-25 18:07:00,37.8,29.3,29.73,NNE,21,4.0,8.0,71,0.00,,,0.00,WeatherCatV1.10B1784,2013-03-25 22:07:00,
2013-03-25 18:12:00,38.0,29.8,29.73,NE,40,7.0,12.0,72,0.00,,,0.00,WeatherCatV1.10B1784,2013-03-25 22:12:00,
2013-03-25 18:17:00,38.1,29.5,29.73,North,355,9.0,15.0,71,0.00,,,0.00,WeatherCatV1.10B1784,2013-03-25 22:17:00,
2013-03-25 18:22:00,37.6,29.4,29.74,North,355,7.0,12.0,72,0.00,,,0.00,WeatherCatV1.10B1784,2013-03-25 22:22:00,
2013-03-25 18:27:00,37.4,29.2,29.74,NNW,329,6.0,11.0,72,0.00,,,0.00,WeatherCatV1.10B1784,2013-03-25 22:27:00,
2013-03-25 18:32:00,37.1,29.3,29.74,North,11,6.0,14.0,73,0.00,,,0.00,WeatherCatV1.10B1784,2013-03-25 22:32:00,
2013-03-25 18:37:00,36.8,29.3,29.75,North,5,5.0,12.0,74,0.00,,,0.00,WeatherCatV1.10B1784,2013-03-25 22:37:00,
2013-03-25 18:42:00,36.6,29.1,29.75,North,5,7.0,15.0,74,0.00,,,0.00,WeatherCatV1.10B1784,2013-03-25 22:42:00,
2013-03-25 18:47:00,36.6,29.4,29.75,NNE,19,5.0,8.0,75,0.00,,,0.00,WeatherCatV1.10B1784,2013-03-25 22:47:00,
2013-03-25 18:52:00,36.6,29.4,29.76,NNW,348,4.0,10.0,75,0.00,,,0.00,WeatherCatV1.10B1784,2013-03-25 22:52:00,
2013-03-25 18:57:00,36.6,29.4,29.76,North,355,8.0,11.0,75,0.00,,,0.00,WeatherCatV1.10B1784,2013-03-25 22:57:00,
2013-03-25 19:02:00,36.4,29.2,29.76,NNE,16,9.0,13.0,75,0.00,,,0.00,WeatherCatV1.10B1784,2013-03-25 23:02:00,
2013-03-25 19:07:00,36.3,29.5,29.76,NNE,19,7.0,7.0,76,0.00,,,0.00,WeatherCatV1.10B1784,2013-03-25 23:07:00,
2013-03-25 19:12:00,36.2,29.1,29.76,North,355,8.0,12.0,75,0.00,,,0.00,WeatherCatV1.10B1784,2013-03-25 23:12:00,
2013-03-25 19:17:00,36.1,29.0,29.77,NNE,21,4.0,11.0,75,0.00,,,0.00,WeatherCatV1.10B1784,2013-03-25 23:17:00,
2013-03-25 19:22:00,35.9,28.8,29.77,North,5,9.0,12.0,75,0.00,,,0.00,WeatherCatV1.10B1784,2013-03-25 23:22:00,
2013-03-25 19:27:00,35.8,29.0,29.77,NNW,348,5.0,12.0,76,0.00,,,0.00,WeatherCatV1.10B1784,2013-03-25 23:27:00,
2013-03-25 19:32:00,35.7,28.9,29.78,NNW,340,11.0,13.0,76,0.00,,,0.00,WeatherCatV1.10B1784,2013-03-25 23:32:00,
2013-03-25 19:37:00,35.6,28.8,29.78,NNE,23,7.0,11.0,76,0.00,,,0.00,WeatherCatV1.10B1784,2013-03-25 23:37:00,
2013-03-25 19:42:00,35.5,28.7,29.78,North,349,6.0,13.0,76,0.00,,,0.00,WeatherCatV1.10B1784,2013-03-25 23:42:00,
2013-03-25 19:47:00,35.4,28.6,29.79,NNE,13,6.0,13.0,76,0.00,,,0.00,WeatherCatV1.10B1784,2013-03-25 23:47:00,
2013-03-25 19:52:00,35.2,28.4,29.79,North,9,7.0,9.0,76,0.00,,,0.00,WeatherCatV1.10B1784,2013-03-25 23:52:00,
2013-03-25 19:57:00,35.1,28.3,29.79,North,0,7.0,9.0,76,0.00,,,0.00,WeatherCatV1.10B1784,2013-03-25 23:57:00,
2013-03-25 20:02:00,35.1,28.3,29.80,North,5,5.0,11.0,76,0.00,,,0.00,WeatherCatV1.10B1784,2013-03-26 00:02:00,
2013-03-25 20:07:00,35.0,28.2,29.80,NNE,32,6.0,13.0,76,0.00,,,0.00,WeatherCatV1.10B1784,2013-03-26 00:07:00,
2013-03-25 20:12:00,34.9,28.1,29.80,North,5,6.0,13.0,76,0.00,,,0.00,WeatherCatV1.10B1784,2013-03-26 00:12:00,
2013-03-25 20:17:00,34.9,28.1,29.80,North,355,3.0,9.0,76,0.00,,,0.00,WeatherCatV1.10B1784,2013-03-26 00:17:00,
2013-03-25 20:22:00,34.9,28.1,29.81,North,349,4.0,10.0,76,0.00,,,0.00,WeatherCatV1.10B1784,2013-03-26 00:22:00,
2013-03-25 20:27:00,34.8,28.0,29.81,North,10,4.0,8.0,76,0.00,,,0.00,WeatherCatV1.10B1784,2013-03-26 00:27:00,
2013-03-25 20:32:00,34.9,28.1,29.81,North,5,5.0,8.0,76,0.00,,,0.00,WeatherCatV1.10B1784,2013-03-26 00:32:00,
2013-03-25 20:37:00,35.0,28.2,29.82,NNE,22,5.0,12.0,76,0.00,,,0.00,WeatherCatV1.10B1784,2013-03-26 00:37:00,
2013-03-25 20:42:00,35.1,28.3,29.82,NNE,20,4.0,8.0,76,0.00,,,0.00,WeatherCatV1.10B1784,2013-03-26 00:42:00,
2013-03-25 20:47:00,35.1,28.3,29.82,North,5,5.0,6.0,76,0.00,,,0.00,WeatherCatV1.10B1784,2013-03-26 00:47:00,
2013-03-25 20:52:00,35.1,28.3,29.82,NNE,24,6.0,7.0,76,0.00,,,0.00,WeatherCatV1.10B1784,2013-03-26 00:52:00,
2013-03-25 20:57:00,35.1,28.3,29.83,NNW,346,5.0,7.0,76,0.00,,,0.00,WeatherCatV1.10B1784,2013-03-26 00:57:00,
2013-03-25 21:02:00,35.1,28.3,29.83,North,10,7.0,9.0,76,0.00,,,0.00,WeatherCatV1.10B1784,2013-03-26 01:02:00,
2013-03-25 21:07:00,35.1,28.6,29.83,North,351,5.0,8.0,77,0.00,,,0.00,WeatherCatV1.10B1784,2013-03-26 01:07:00,
2013-03-25 21:12:00,35.1,28.6,29.83,NE,36,7.0,10.0,77,0.00,,,0.00,WeatherCatV1.10B1784,2013-03-26 01:12:00,
2013-03-25 21:17:00,35.0,28.5,29.84,NE,35,6.0,11.0,77,0.00,,,0.00,WeatherCatV1.10B1784,2013-03-26 01:17:00,
2013-03-25 21:22:00,35.0,28.5,29.84,NNE,21,10.0,10.0,77,0.00,,,0.00,WeatherCatV1.10B1784,2013-03-26 01:22:00,
2013-03-25 21:27:00,35.0,28.5,29.84,NNW,344,5.0,7.0,77,0.00,,,0.00,WeatherCatV1.10B1784,2013-03-26 01:27:00,
2013-03-25 21:32:00,35.0,28.5,29.85,North,9,4.0,7.0,77,0.00,,,0.00,WeatherCatV1.10B1784,2013-03-26 01:32:00,
2013-03-25 21:37:00,34.9,28.8,29.85,North,5,5.0,8.0,78,0.00,,,0.00,WeatherCatV1.10B1784,2013-03-26 01:37:00,
2013-03-25 21:42:00,34.8,28.7,29.85,NNE,16,3.0,7.0,78,0.00,,,0.00,WeatherCatV1.10B1784,2013-03-26 01:42:00,
2013-03-25 21:47:00,34.8,28.7,29.85,North,5,3.0,7.0,78,0.00,,,0.00,WeatherCatV1.10B1784,2013-03-26 01:47:00,
2013-03-25 21:52:00,34.8,28.7,29.86,NNE,15,4.0,5.0,78,0.00,,,0.00,WeatherCatV1.10B1784,2013-03-26 01:52:00,
2013-03-25 21:57:00,34.8,28.7,29.86,NNW,347,3.0,5.0,78,0.00,,,0.00,WeatherCatV1.10B1784,2013-03-26 01:57:00,
2013-03-25 22:02:00,34.7,28.6,29.86,NNE,20,6.0,8.0,78,0.00,,,0.00,WeatherCatV1.10B1784,2013-03-26 02:02:00,
2013-03-25 22:07:00,34.8,28.7,29.86,North,0,3.0,9.0,78,0.00,,,0.00,WeatherCatV1.10B1784,2013-03-26 02:07:00,
2013-03-25 22:12:00,34.7,28.6,29.86,North,355,4.0,5.0,78,0.00,,,0.00,WeatherCatV1.10B1784,2013-03-26 02:12:00,
2013-03-25 22:17:00,34.7,28.6,29.86,NNW,346,4.0,7.0,78,0.00,,,0.00,WeatherCatV1.10B1784,2013-03-26 02:17:00,
2013-03-25 22:22:00,34.8,28.7,29.86,NNE,20,5.0,9.0,78,0.00,,,0.00,WeatherCatV1.10B1784,2013-03-26 02:22:00,
2013-03-25 22:27:00,34.7,28.6,29.86,North,5,3.0,4.0,78,0.00,,,0.00,WeatherCatV1.10B1784,2013-03-26 02:27:00,
2013-03-25 22:32:00,34.7,28.6,29.87,North,5,3.0,6.0,78,0.00,,,0.00,WeatherCatV1.10B1784,2013-03-26 02:32:00,
2013-03-25 22:37:00,34.7,28.6,29.87,North,0,5.0,6.0,78,0.00,,,0.00,WeatherCatV1.10B1784,2013-03-26 02:37:00,
2013-03-25 22:42:00,34.7,28.6,29.87,North,5,3.0,5.0,78,0.00,,,0.00,WeatherCatV1.10B1784,2013-03-26 02:42:00,
2013-03-25 22:47:00,34.7,28.6,29.87,North,11,3.0,5.0,78,0.00,,,0.00,WeatherCatV1.10B1784,2013-03-26 02:47:00,
2013-03-25 22:52:00,34.7,28.6,29.87,North,10,4.0,10.0,78,0.00,,,0.00,WeatherCatV1.10B1784,2013-03-26 02:52:00,
2013-03-25 22:57:00,34.8,28.3,29.88,North,0,3.0,5.0,77,0.00,,,0.00,WeatherCatV1.10B1784,2013-03-26 02:57:00,
2013-03-25 23:02:00,34.8,28.3,29.88,NNE,17,2.0,5.0,77,0.00,,,0.00,WeatherCatV1.10B1784,2013-03-26 03:02:00,
2013-03-25 23:07:00,34.8,28.3,29.88,NNW,340,4.0,5.0,77,0.00,,,0.00,WeatherCatV1.10B1784,2013-03-26 03:07:00,
2013-03-25 23:12:00,34.7,28.2,29.88,NNW,346,3.0,5.0,77,0.00,,,0.00,WeatherCatV1.10B1784,2013-03-26 03:12:00,
2013-03-25 23:18:00,34.7,28.2,29.88,North,355,3.0,5.0,77,0.00,,,0.00,WeatherCatV1.10B1784,2013-03-26 03:18:00,
2013-03-25 23:22:00,34.6,28.5,29.88,NNW,344,3.0,4.0,78,0.00,,,0.00,WeatherCatV1.10B1784,2013-03-26 03:22:00,
2013-03-25 23:28:00,34.5,28.4,29.88,NNW,344,4.0,4.0,78,0.00,,,0.00,WeatherCatV1.10B1784,2013-03-26 03:28:00,
2013-03-25 23:33:00,34.4,28.3,29.88,NNW,343,3.0,6.0,78,0.00,,,0.00,WeatherCatV1.10B1784,2013-03-26 03:33:00,
2013-03-25 23:38:00,34.3,28.2,29.89,NNW,346,3.0,5.0,78,0.00,,,0.00,WeatherCatV1.10B1784,2013-03-26 03:38:00,
2013-03-25 23:43:00,34.3,28.5,29.89,NNW,345,5.0,5.0,79,0.00,,,0.00,WeatherCatV1.10B1784,2013-03-26 03:43:00,
2013-03-25 23:48:00,34.3,28.5,29.89,North,355,5.0,5.0,79,0.00,,,0.00,WeatherCatV1.10B1784,2013-03-26 03:48:00,
2013-03-25 23:53:00,34.2,28.1,29.89,NNW,344,4.0,8.0,78,0.00,,,0.00,WeatherCatV1.10B1784,2013-03-26 03:53:00,
2013-03-25 23:58:00,34.2,28.1,29.89,NNW,348,6.0,11.0,78,0.00,,,0.00,WeatherCatV1.10B1784,2013-03-26 03:58:00,